• Join FlightAware (Why Join?)
  • Login
  • US Flag 
02:41PM EDT


 

Airport Tracker/Info


-or-


 

Live Flight TrackerFlight Track Log ✈ VH-MXT ✈ 05-Jun-2013 ✈ YSBK / BWU - YGLB / GUL

Flight Track Log - Related Links

Times and Time Zones

All times are in EDT time to prevent confusion due to time zone crossing. See the VH-MXT flight status page for this flight to view local times or setup timezone preferences in your user account.

Time Position Orientation Groundspeed Altitude Reporting Facility
EDT Latitude Longitude Course Direction KTS MPH feet Rate Location/Type
09:34PM -33.9085 150.9698 297° West 78 90 600  Level Aus ATC (RADAR)
09:35PM -33.9003 150.9508 297° West 74 85 1,200 600 Climbing Aus ATC (RADAR)
09:35PM -33.9035 150.9309 259° West 88 101 1,500 60 Climbing Aus ATC (RADAR)
09:36PM -33.9132 150.8967 251° West 116 133 1,300 -240 Descending Aus ATC (RADAR)
09:54PM -34.4483 150.5033 360° North 6,500 240 Climbing Aus ATC (Calculated)
09:55PM -34.4483 150.5033 20° North 5,800 -1,080 Descending Aus ATC (Calculated)
09:57PM -34.3967 150.5267 20° North  Level FlightAware Approximate
09:58PM -34.3627 150.5421 20° North  Level FlightAware Approximate
09:59PM -34.3286 150.5574 20° North  Level FlightAware Approximate
10:00PM -34.2946 150.5728 20° North  Level FlightAware Approximate
10:01PM -34.2606 150.5881 20° North  Level FlightAware Approximate
10:02PM -34.2829 150.5535 200° South  Level Estimated
10:03PM -34.3181 150.5428 194° South  Level FlightAware Approximate
10:04PM -34.3534 150.5322 194° South  Level FlightAware Approximate
10:05PM -34.3886 150.5215 194° South  Level FlightAware Approximate
10:06PM -34.4238 150.5108 194° South  Level FlightAware Approximate
10:07PM -34.4591 150.5001 194° South  Level FlightAware Approximate
10:08PM -34.4238 150.5108 14° North  Level FlightAware Approximate
10:08PM -34.8020 150.0737 46° Northeast  Level Aus ATC (Calculated)
10:09PM -34.4591 150.5001 194° South  Level FlightAware Approximate
10:10PM -34.7601 150.1249 45° Northeast  Level FlightAware Approximate
10:11PM -34.7345 150.1562 45° Northeast  Level FlightAware Approximate
10:12PM -34.7088 150.1874 45° Northeast  Level FlightAware Approximate
10:13PM -34.7183 150.1448 225° Southwest  Level Estimated
10:14PM -34.7481 150.1195 215° Southwest  Level FlightAware Approximate
10:15PM -34.7779 150.0942 215° Southwest  Level FlightAware Approximate
10:16PM -34.8076 150.0689 215° Southwest  Level FlightAware Approximate
10:17PM -34.7779 150.0942 35° Northeast  Level FlightAware Approximate
10:18PM -34.8076 150.0689 215° Southwest  Level FlightAware Approximate
10:19PM -34.7779 150.0942 35° Northeast  Level FlightAware Approximate
10:20PM -34.8076 150.0689 215° Southwest  Level FlightAware Approximate
10:21PM -34.7779 150.0942 35° Northeast  Level FlightAware Approximate
10:22PM -34.8076 150.0689 215° Southwest  Level FlightAware Approximate
10:23PM -34.7779 150.0942 35° Northeast  Level FlightAware Approximate
10:24PM -34.8076 150.0689 215° Southwest  Level FlightAware Approximate
10:25PM -34.7779 150.0942 35° Northeast  Level FlightAware Approximate
10:26PM -34.8076 150.0689 215° Southwest  Level FlightAware Approximate
10:27PM -34.8026 150.0477 268° West  Level FlightAware Approximate
10:28PM -34.8037 150.0035 268° West  Level FlightAware Approximate
10:29PM -34.8048 149.9593 268° West  Level FlightAware Approximate
10:30PM -34.8059 149.9151 268° West  Level FlightAware Approximate